createdAt,value
2022-11-26T00:01:15.553Z,84.41
2022-11-26T00:03:42.380Z,84.95
2022-11-26T00:06:16.677Z,84.75
2022-11-26T00:08:43.183Z,84.68
2022-11-26T00:11:10.953Z,84.58
2022-11-26T00:13:37.415Z,84.62
2022-11-26T00:19:25.663Z,84.30
2022-11-26T00:21:52.107Z,83.98
2022-11-26T00:24:25.771Z,84.34
2022-11-26T00:26:52.452Z,84.30
2022-11-26T00:29:18.906Z,84.23
2022-11-26T00:31:45.402Z,84.14
2022-11-26T00:34:13.118Z,83.80
2022-11-26T00:36:39.566Z,83.61
2022-11-26T00:39:07.531Z,83.15
2022-11-26T00:41:34.754Z,83.40
2022-11-26T00:44:01.322Z,83.70
2022-11-26T00:46:27.777Z,83.66
2022-11-26T00:52:32.789Z,83.80
2022-11-26T00:54:59.350Z,83.66
2022-11-26T00:57:25.912Z,83.80
2022-11-26T00:59:52.486Z,83.66
2022-11-26T01:05:40.695Z,83.63
2022-11-26T01:08:27.623Z,83.24
2022-11-26T01:10:54.342Z,83.63
2022-11-26T01:13:20.828Z,84.04
2022-11-26T01:15:47.231Z,83.16
2022-11-26T01:18:15.010Z,83.59
2022-11-26T01:20:41.681Z,83.62
2022-11-26T01:23:12.332Z,83.34
2022-11-26T01:25:38.989Z,83.46
2022-11-26T01:28:05.554Z,83.24
2022-11-26T01:30:32.393Z,83.46
2022-11-26T01:33:00.915Z,82.71
2022-11-26T01:35:27.724Z,83.31
2022-11-26T01:37:54.158Z,83.06
2022-11-26T01:40:27.329Z,82.96
2022-11-26T01:42:56.098Z,82.53
2022-11-26T01:45:22.779Z,82.77
2022-11-26T01:47:49.491Z,82.55
2022-11-26T01:50:28.499Z,82.87
2022-11-26T01:52:57.962Z,82.50
2022-11-26T01:55:24.491Z,83.09
2022-11-26T01:57:50.990Z,82.68
2022-11-26T02:00:17.633Z,82.64
2022-11-26T02:02:45.555Z,83.20
2022-11-26T02:05:15.626Z,83.24
2022-11-26T02:07:42.186Z,83.39
2022-11-26T02:10:09.673Z,83.65
2022-11-26T02:12:36.532Z,83.70
2022-11-26T02:15:03.095Z,83.70
2022-11-26T02:17:29.648Z,83.83
2022-11-26T02:20:03.930Z,83.35
2022-11-26T02:22:36.465Z,83.80
2022-11-26T02:25:03.156Z,84.04
2022-11-26T02:27:39.469Z,83.79
2022-11-26T02:30:09.731Z,83.06
2022-11-26T02:32:39.105Z,83.75
2022-11-26T02:35:07.662Z,83.07
2022-11-26T02:37:35.559Z,83.47
2022-11-26T02:40:02.198Z,83.00
2022-11-26T02:42:29.857Z,83.36
2022-11-26T02:44:57.828Z,83.70
2022-11-26T02:47:24.882Z,83.08
2022-11-26T02:49:51.539Z,83.48
2022-11-26T02:52:18.245Z,84.09
2022-11-26T02:54:44.714Z,83.26
2022-11-26T02:57:12.314Z,83.45
2022-11-26T02:59:38.832Z,83.47
2022-11-26T03:02:12.683Z,84.46
2022-11-26T03:04:40.881Z,84.51
2022-11-26T03:07:07.930Z,84.56
2022-11-26T03:09:41.476Z,83.77
2022-11-26T03:12:08.243Z,84.32
2022-11-26T03:14:34.802Z,83.83
2022-11-26T03:17:01.550Z,84.56
2022-11-26T03:19:43.372Z,84.72
2022-11-26T03:22:09.992Z,84.39
2022-11-26T03:24:36.892Z,83.99
2022-11-26T03:27:04.001Z,84.22
2022-11-26T03:29:30.617Z,83.73
2022-11-26T03:31:57.383Z,84.49
2022-11-26T03:34:24.015Z,84.69
2022-11-26T03:36:50.637Z,84.23
2022-11-26T03:39:17.697Z,84.61
2022-11-26T03:41:44.372Z,84.09
2022-11-26T03:44:11.434Z,83.72
2022-11-26T03:46:37.916Z,84.26
2022-11-26T03:49:04.387Z,84.38
2022-11-26T03:51:30.873Z,84.52
2022-11-26T03:53:57.334Z,83.73
2022-11-26T03:56:23.776Z,84.29
2022-11-26T03:58:50.319Z,84.08
2022-11-26T04:01:16.806Z,84.30
2022-11-26T04:03:43.340Z,83.91
2022-11-26T04:06:10.001Z,84.16
2022-11-26T04:08:36.502Z,83.73
2022-11-26T04:11:02.963Z,83.86
2022-11-26T04:13:29.412Z,84.45
2022-11-26T04:15:55.846Z,84.50
2022-11-26T04:18:22.276Z,84.35
2022-11-26T04:20:52.763Z,83.63
2022-11-26T04:23:19.984Z,83.62
2022-11-26T04:29:26.404Z,84.40
2022-11-26T04:31:52.948Z,84.07
2022-11-26T04:34:19.454Z,83.60
2022-11-26T04:36:45.896Z,84.04
2022-11-26T04:39:12.720Z,83.56
2022-11-26T04:41:39.185Z,83.76
2022-11-26T04:44:05.669Z,83.46
2022-11-26T04:46:32.131Z,84.29
2022-11-26T04:48:58.566Z,83.84
2022-11-26T04:51:25.090Z,84.04
2022-11-26T04:53:55.610Z,84.07
2022-11-26T04:56:22.437Z,83.95
2022-11-26T04:58:48.895Z,83.99
2022-11-26T05:01:15.370Z,83.61
2022-11-26T05:03:42.870Z,83.98
2022-11-26T05:06:10.853Z,84.00
2022-11-26T05:08:37.439Z,84.16
2022-11-26T05:11:03.971Z,83.59
2022-11-26T05:13:30.436Z,83.95
2022-11-26T05:15:56.945Z,84.51
2022-11-26T05:18:23.414Z,84.72
2022-11-26T05:20:49.913Z,84.41
2022-11-26T05:23:16.440Z,84.23
2022-11-26T05:25:42.999Z,84.77
2022-11-26T05:28:09.513Z,84.83
2022-11-26T05:30:36.040Z,84.23
2022-11-26T05:33:02.510Z,84.02
2022-11-26T05:35:28.977Z,83.98
2022-11-26T05:37:55.476Z,84.13
2022-11-26T05:40:21.924Z,84.68
2022-11-26T05:42:48.382Z,84.52
2022-11-26T05:45:15.879Z,84.22
2022-11-26T05:47:42.508Z,83.71
2022-11-26T05:50:09.188Z,84.35
2022-11-26T05:52:35.870Z,84.17
2022-11-26T05:55:02.392Z,84.58
2022-11-26T05:57:28.860Z,84.70
2022-11-26T06:03:23.444Z,84.10
2022-11-26T06:05:49.975Z,84.54
2022-11-26T06:08:16.415Z,84.24
2022-11-26T06:10:43.349Z,84.16
2022-11-26T06:13:09.825Z,84.58
2022-11-26T06:15:36.283Z,84.18
2022-11-26T06:18:02.797Z,84.17
2022-11-26T06:20:29.274Z,84.61
2022-11-26T06:22:55.725Z,84.69
2022-11-26T06:25:22.191Z,84.10
2022-11-26T06:27:49.079Z,84.47
2022-11-26T06:30:15.548Z,84.11
2022-11-26T06:32:42.053Z,84.82
2022-11-26T06:35:08.808Z,84.81
2022-11-26T06:37:35.254Z,84.03
2022-11-26T06:40:01.763Z,84.59
2022-11-26T06:42:29.722Z,84.37
2022-11-26T06:44:59.855Z,84.46
2022-11-26T06:47:26.884Z,84.43
2022-11-26T06:49:53.358Z,83.85
2022-11-26T06:52:19.815Z,84.44
2022-11-26T06:54:46.306Z,84.53
2022-11-26T06:57:12.796Z,83.99
2022-11-26T06:59:39.245Z,84.53
2022-11-26T07:02:05.756Z,84.55
2022-11-26T07:04:32.367Z,84.23
2022-11-26T07:06:58.802Z,83.84
2022-11-26T07:09:25.248Z,84.63
2022-11-26T07:11:51.756Z,84.12
2022-11-26T07:14:18.274Z,84.77
2022-11-26T07:16:44.680Z,84.24
2022-11-26T07:19:12.472Z,84.63
2022-11-26T07:21:38.944Z,84.59
2022-11-26T07:24:05.703Z,84.27
2022-11-26T07:26:32.191Z,84.16
2022-11-26T07:28:58.614Z,84.53
2022-11-26T07:31:25.122Z,84.98
2022-11-26T07:33:51.755Z,84.79
2022-11-26T07:36:22.269Z,84.70
2022-11-26T07:38:48.738Z,84.56
2022-11-26T07:41:16.163Z,84.55
2022-11-26T07:43:42.961Z,84.30
2022-11-26T07:46:10.203Z,84.85
2022-11-26T07:48:38.311Z,84.28
2022-11-26T07:51:04.800Z,84.83
2022-11-26T07:53:31.456Z,85.01
2022-11-26T07:55:57.980Z,84.72
2022-11-26T07:58:24.506Z,85.00
2022-11-26T08:00:54.619Z,84.62
2022-11-26T08:03:21.578Z,84.85
2022-11-26T08:05:48.159Z,84.87
2022-11-26T08:08:14.717Z,84.74
2022-11-26T08:10:41.183Z,84.74
2022-11-26T08:13:07.658Z,84.47
2022-11-26T08:15:35.548Z,85.02
2022-11-26T08:18:01.986Z,84.37
2022-11-26T08:20:29.282Z,84.84
2022-11-26T08:22:55.853Z,84.82
2022-11-26T08:25:22.305Z,84.57
2022-11-26T08:27:49.095Z,84.88
2022-11-26T08:30:15.805Z,84.45
2022-11-26T08:32:42.275Z,84.19
2022-11-26T08:35:08.759Z,84.03
2022-11-26T08:37:35.208Z,84.53
2022-11-26T08:40:02.544Z,84.33
2022-11-26T08:42:29.224Z,84.90
2022-11-26T08:44:55.709Z,84.78
2022-11-26T08:47:22.145Z,84.94
2022-11-26T08:49:49.789Z,85.23
2022-11-26T08:52:17.349Z,85.02
2022-11-26T08:54:45.528Z,84.80
2022-11-26T08:57:12.206Z,84.68
2022-11-26T08:59:38.692Z,83.88
2022-11-26T09:02:05.225Z,83.96
2022-11-26T09:04:32.052Z,84.31
2022-11-26T09:06:58.493Z,84.56
2022-11-26T09:09:25.474Z,84.05
2022-11-26T09:11:56.655Z,84.55
2022-11-26T09:14:25.241Z,83.90
2022-11-26T09:16:52.043Z,84.00
2022-11-26T09:19:18.624Z,83.87
2022-11-26T09:21:45.697Z,83.74
2022-11-26T09:24:12.551Z,84.13
2022-11-26T09:26:39.028Z,83.98
2022-11-26T09:29:05.644Z,84.34
2022-11-26T09:31:32.227Z,83.87
2022-11-26T09:33:59.245Z,83.98
2022-11-26T09:36:25.723Z,84.40
2022-11-26T09:38:55.606Z,84.18
2022-11-26T09:41:28.309Z,84.56
2022-11-26T09:44:00.877Z,84.24
2022-11-26T09:47:10.387Z,84.52
2022-11-26T09:49:35.849Z,84.82
2022-11-26T09:52:02.855Z,84.21
2022-11-26T09:54:29.427Z,83.95
2022-11-26T09:56:59.198Z,84.13
2022-11-26T09:59:25.680Z,84.32
2022-11-26T10:01:52.249Z,84.54
2022-11-26T10:04:27.273Z,84.59
2022-11-26T10:07:02.965Z,84.64
2022-11-26T10:09:49.819Z,84.16
2022-11-26T10:12:25.026Z,83.82
2022-11-26T10:15:11.634Z,84.09
2022-11-26T10:17:50.405Z,84.45
2022-11-26T10:20:35.630Z,84.88
2022-11-26T10:23:15.394Z,84.88
2022-11-26T10:25:43.260Z,85.00
2022-11-26T10:28:28.466Z,85.10
2022-11-26T10:30:59.379Z,84.40
2022-11-26T10:33:27.792Z,84.45
2022-11-26T10:35:54.382Z,85.01
2022-11-26T10:38:20.864Z,84.47
2022-11-26T10:40:47.456Z,84.62
2022-11-26T10:43:17.544Z,85.03
2022-11-26T10:45:44.044Z,85.11
2022-11-26T10:48:29.003Z,85.00
2022-11-26T10:50:56.305Z,85.03
2022-11-26T10:53:23.041Z,84.61
2022-11-26T10:55:49.561Z,84.88
2022-11-26T10:58:22.057Z,85.46
2022-11-26T11:00:48.658Z,85.28
2022-11-26T11:06:21.873Z,84.66
2022-11-26T11:08:48.816Z,84.98
2022-11-26T11:11:19.824Z,85.09
2022-11-26T11:13:49.862Z,85.79
2022-11-26T11:16:26.410Z,85.73
2022-11-26T11:18:57.019Z,85.07
2022-11-26T11:21:24.095Z,84.63
2022-11-26T11:24:08.339Z,85.20
2022-11-26T11:26:42.764Z,85.18
2022-11-26T11:29:22.964Z,85.39
2022-11-26T11:31:49.495Z,85.15
2022-11-26T11:34:45.200Z,85.54
2022-11-26T11:37:15.091Z,85.42
2022-11-26T11:39:41.641Z,85.55
2022-11-26T11:42:16.162Z,85.76
2022-11-26T11:44:49.492Z,85.94
2022-11-26T11:47:28.202Z,85.46
2022-11-26T11:50:07.041Z,85.73
2022-11-26T11:52:42.744Z,85.63
2022-11-26T11:55:25.199Z,85.72
2022-11-26T11:57:57.675Z,85.65
2022-11-26T12:00:24.913Z,85.93
2022-11-26T12:02:57.423Z,85.74
2022-11-26T12:05:31.358Z,85.59
2022-11-26T12:08:12.355Z,85.26
2022-11-26T12:10:54.187Z,85.51
2022-11-26T12:13:20.664Z,85.24
2022-11-26T12:15:54.888Z,84.93
2022-11-26T12:18:26.927Z,85.29
2022-11-26T12:21:01.338Z,85.18
2022-11-26T12:23:27.835Z,85.24
2022-11-26T12:25:56.534Z,84.95
2022-11-26T12:28:24.541Z,85.31
2022-11-26T12:30:58.535Z,85.23
2022-11-26T12:33:32.558Z,84.98
2022-11-26T12:35:59.628Z,85.52
2022-11-26T12:38:34.471Z,85.45
2022-11-26T12:41:05.919Z,85.27
2022-11-26T12:43:55.597Z,85.52
2022-11-26T12:46:31.200Z,85.44
2022-11-26T12:49:03.576Z,85.34
2022-11-26T12:51:39.386Z,85.08
2022-11-26T12:54:05.849Z,85.51
2022-11-26T12:56:42.106Z,85.55
2022-11-26T12:59:11.512Z,85.45
2022-11-26T13:01:38.221Z,85.48
2022-11-26T13:04:36.008Z,85.26
2022-11-26T13:07:11.550Z,85.40
2022-11-26T13:09:45.202Z,85.54
2022-11-26T13:12:17.685Z,85.35
2022-11-26T13:14:50.995Z,85.66
2022-11-26T13:17:17.865Z,84.96
2022-11-26T13:19:44.964Z,84.78
2022-11-26T13:22:26.775Z,84.76
2022-11-26T13:25:09.116Z,85.25
2022-11-26T13:27:41.805Z,85.16
2022-11-26T13:30:19.280Z,85.08
2022-11-26T13:33:04.030Z,85.49
2022-11-26T13:35:33.717Z,85.44
2022-11-26T13:38:06.370Z,85.63
2022-11-26T13:40:54.719Z,85.59
2022-11-26T13:43:31.127Z,85.45
2022-11-26T13:46:19.015Z,84.99
2022-11-26T13:48:57.303Z,84.93
2022-11-26T13:51:28.600Z,85.18
2022-11-26T13:53:56.770Z,85.00
2022-11-26T13:56:24.031Z,85.05
2022-11-26T13:58:52.236Z,85.14
2022-11-26T14:01:40.694Z,84.64
2022-11-26T14:04:22.575Z,84.98
2022-11-26T14:07:04.484Z,85.10
2022-11-26T14:09:43.594Z,85.00
2022-11-26T14:12:10.620Z,84.79
2022-11-26T14:14:37.971Z,85.12
2022-11-26T14:17:04.623Z,84.97
2022-11-26T14:19:40.273Z,84.88
2022-11-26T14:22:07.463Z,84.74
2022-11-26T14:24:49.480Z,84.91
2022-11-26T14:27:16.305Z,84.79
2022-11-26T14:29:44.179Z,84.98
2022-11-26T14:32:47.940Z,85.00
2022-11-26T14:35:24.163Z,84.86
2022-11-26T14:37:55.519Z,84.84
2022-11-26T14:40:23.348Z,84.64
2022-11-26T14:42:49.851Z,84.84
2022-11-26T14:45:17.436Z,84.93
2022-11-26T14:47:44.824Z,84.60
2022-11-26T14:50:12.394Z,85.21
2022-11-26T14:52:39.398Z,85.08
2022-11-26T14:55:07.163Z,84.65
2022-11-26T14:58:09.358Z,85.01
2022-11-26T15:00:36.161Z,84.87
2022-11-26T15:03:05.652Z,85.12
2022-11-26T15:05:33.113Z,84.84
2022-11-26T15:08:00.495Z,84.71
2022-11-26T15:10:27.398Z,84.64
2022-11-26T15:12:54.092Z,84.99
2022-11-26T15:15:21.308Z,85.23
2022-11-26T15:17:49.391Z,85.08
2022-11-26T15:20:16.745Z,84.88
2022-11-26T15:22:44.413Z,85.09
2022-11-26T15:25:18.011Z,85.53
2022-11-26T15:27:54.861Z,85.14
2022-11-26T15:30:22.719Z,85.15
2022-11-26T15:32:55.556Z,85.12
2022-11-26T15:35:22.034Z,85.44
2022-11-26T15:37:48.466Z,85.04
2022-11-26T15:40:21.678Z,85.35
2022-11-26T15:42:48.414Z,85.26
2022-11-26T15:45:19.030Z,85.20
2022-11-26T15:47:49.416Z,85.24
2022-11-26T15:50:22.987Z,85.26
2022-11-26T15:52:49.453Z,85.20
2022-11-26T15:55:19.472Z,85.18
2022-11-26T15:57:48.179Z,85.28
2022-11-26T16:00:20.211Z,85.02
2022-11-26T16:02:47.007Z,84.91
2022-11-26T16:05:23.931Z,85.03
2022-11-26T16:08:00.502Z,84.95
2022-11-26T16:10:27.621Z,84.58
2022-11-26T16:13:12.793Z,84.30
2022-11-26T16:15:49.918Z,84.64
2022-11-26T16:18:17.745Z,84.63
2022-11-26T16:20:44.234Z,85.03
2022-11-26T16:23:24.837Z,84.84
2022-11-26T16:26:15.310Z,84.83
2022-11-26T16:28:42.372Z,85.31
2022-11-26T16:31:08.933Z,84.84
2022-11-26T16:33:35.426Z,85.29
2022-11-26T16:36:01.919Z,85.07
2022-11-26T16:38:28.570Z,85.26
2022-11-26T16:40:55.221Z,85.26
2022-11-26T16:43:21.789Z,84.85
2022-11-26T16:45:48.534Z,85.43
2022-11-26T16:48:21.718Z,84.73
2022-11-26T16:50:48.161Z,85.05
2022-11-26T16:53:14.733Z,85.14
2022-11-26T16:55:41.357Z,85.36
2022-11-26T16:58:10.111Z,84.77
2022-11-26T17:00:36.551Z,84.54
2022-11-26T17:03:03.177Z,84.08
2022-11-26T17:05:29.763Z,84.18
2022-11-26T17:07:57.101Z,84.41
2022-11-26T17:10:24.310Z,84.42
2022-11-26T17:12:50.858Z,84.04
2022-11-26T17:15:17.316Z,84.47
2022-11-26T17:17:43.940Z,84.80
2022-11-26T17:20:22.282Z,84.46
2022-11-26T17:22:48.902Z,85.29
2022-11-26T17:25:15.393Z,85.32
2022-11-26T17:27:41.882Z,85.43
2022-11-26T17:30:10.679Z,85.25
2022-11-26T17:32:37.170Z,85.34
2022-11-26T17:35:03.747Z,85.45
2022-11-26T17:37:30.301Z,85.60
2022-11-26T17:39:57.034Z,85.61
2022-11-26T17:42:23.981Z,85.29
2022-11-26T17:44:51.056Z,85.72
2022-11-26T17:47:18.429Z,85.66
2022-11-26T17:49:45.642Z,85.71
2022-11-26T17:52:12.098Z,85.66
2022-11-26T17:54:38.513Z,85.34
2022-11-26T17:57:04.968Z,85.55
2022-11-26T17:59:31.831Z,85.47
2022-11-26T18:01:58.375Z,85.83
2022-11-26T18:04:24.874Z,85.36
2022-11-26T18:06:54.440Z,85.41
2022-11-26T18:09:20.866Z,85.25
2022-11-26T18:11:51.543Z,85.59
2022-11-26T18:14:18.034Z,85.53
2022-11-26T18:16:44.595Z,85.75
2022-11-26T18:19:11.971Z,85.42
2022-11-26T18:21:38.484Z,85.29
2022-11-26T18:24:05.171Z,85.23
2022-11-26T18:26:31.903Z,85.02
2022-11-26T18:28:58.480Z,84.93
2022-11-26T18:31:25.037Z,85.41
2022-11-26T18:33:51.547Z,85.38
2022-11-26T18:36:18.375Z,85.21
2022-11-26T18:38:44.991Z,85.20
2022-11-26T18:41:11.511Z,85.47
2022-11-26T18:43:38.903Z,85.00
2022-11-26T18:46:06.345Z,85.46
2022-11-26T18:48:35.994Z,85.05
2022-11-26T18:51:02.457Z,85.33
2022-11-26T18:53:28.950Z,85.19
2022-11-26T18:55:55.662Z,85.49
2022-11-26T18:58:22.434Z,85.07
2022-11-26T19:00:49.115Z,85.27
2022-11-26T19:03:15.851Z,85.12
2022-11-26T19:05:44.656Z,85.66
2022-11-26T19:08:11.319Z,85.25
2022-11-26T19:10:37.793Z,85.63
2022-11-26T19:13:04.512Z,85.46
2022-11-26T19:15:30.946Z,85.34
2022-11-26T19:17:57.416Z,85.00
2022-11-26T19:20:23.990Z,84.46
2022-11-26T19:22:50.399Z,84.34
2022-11-26T19:25:17.054Z,83.98
2022-11-26T19:27:43.835Z,83.69
2022-11-26T19:30:10.661Z,82.91
2022-11-26T19:32:37.123Z,82.63
2022-11-26T19:35:06.031Z,82.69
2022-11-26T19:37:33.135Z,82.34
2022-11-26T19:39:59.562Z,81.90
2022-11-26T19:42:26.010Z,81.54
2022-11-26T19:44:52.546Z,81.68
2022-11-26T19:47:19.172Z,81.99
2022-11-26T19:49:45.879Z,82.18
2022-11-26T19:52:12.385Z,82.53
2022-11-26T19:54:38.833Z,82.98
2022-11-26T19:57:05.832Z,83.18
2022-11-26T19:59:32.352Z,82.96
2022-11-26T20:01:59.039Z,83.26
2022-11-26T20:04:27.662Z,83.88
2022-11-26T20:06:54.383Z,83.34
2022-11-26T20:09:20.882Z,84.20
2022-11-26T20:11:47.659Z,84.38
2022-11-26T20:14:14.167Z,83.89
2022-11-26T20:16:42.137Z,83.91
2022-11-26T20:19:08.788Z,84.20
2022-11-26T20:21:35.264Z,83.12
2022-11-26T20:24:21.927Z,82.68
2022-11-26T20:26:50.823Z,83.17
2022-11-26T20:29:17.457Z,83.11
2022-11-26T20:31:45.886Z,82.20
2022-11-26T20:34:15.903Z,81.88
2022-11-26T20:36:58.909Z,81.53
2022-11-26T20:39:25.403Z,81.86
2022-11-26T20:41:51.939Z,82.14
2022-11-26T20:44:18.473Z,82.36
2022-11-26T20:46:44.912Z,82.63
2022-11-26T20:49:11.781Z,82.27
2022-11-26T20:51:38.373Z,82.68
2022-11-26T20:54:04.884Z,83.01
2022-11-26T20:56:31.405Z,82.58
2022-11-26T20:58:57.870Z,82.63
2022-11-26T21:01:25.453Z,82.60
2022-11-26T21:03:57.380Z,82.75
2022-11-26T21:06:29.433Z,82.85
2022-11-26T21:08:59.728Z,82.54
2022-11-26T21:11:26.162Z,82.95
2022-11-26T21:13:52.663Z,83.11
2022-11-26T21:16:19.285Z,83.57
2022-11-26T21:18:46.131Z,83.14
2022-11-26T21:21:13.619Z,82.92
2022-11-26T21:23:40.392Z,83.16
2022-11-26T21:26:07.416Z,83.53
2022-11-26T21:28:34.085Z,83.12
2022-11-26T21:31:04.468Z,83.53
2022-11-26T21:33:31.008Z,82.96
2022-11-26T21:36:03.135Z,83.39
2022-11-26T21:38:29.553Z,83.78
2022-11-26T21:40:55.990Z,83.60
2022-11-26T21:43:22.572Z,84.03
2022-11-26T21:46:22.033Z,83.11
2022-11-26T21:48:48.455Z,83.11
2022-11-26T21:51:18.220Z,83.41
2022-11-26T21:53:44.864Z,83.26
2022-11-26T21:56:15.426Z,83.65
2022-11-26T21:58:41.873Z,83.91
2022-11-26T22:01:15.453Z,83.32
2022-11-26T22:03:42.424Z,83.64
2022-11-26T22:06:08.956Z,84.25
2022-11-26T22:08:35.536Z,84.46
2022-11-26T22:11:07.323Z,84.43
2022-11-26T22:13:33.745Z,84.59
2022-11-26T22:16:00.296Z,84.43
2022-11-26T22:18:26.905Z,84.67
2022-11-26T22:20:53.703Z,84.46
2022-11-26T22:23:20.284Z,84.74
2022-11-26T22:25:46.689Z,84.91
2022-11-26T22:28:13.189Z,84.37
2022-11-26T22:30:39.929Z,84.49
2022-11-26T22:33:06.501Z,84.47
2022-11-26T22:35:33.474Z,84.93
2022-11-26T22:37:59.889Z,85.15
2022-11-26T22:40:26.404Z,85.43
2022-11-26T22:42:55.199Z,84.51
2022-11-26T22:45:25.337Z,85.19
2022-11-26T22:47:52.988Z,84.50
2022-11-26T22:50:19.581Z,84.51
2022-11-26T22:52:46.050Z,84.19
2022-11-26T22:55:12.447Z,84.21
2022-11-26T22:57:38.866Z,84.48
2022-11-26T23:00:06.645Z,84.10
2022-11-26T23:02:33.178Z,84.76
2022-11-26T23:04:59.617Z,84.77
2022-11-26T23:07:26.065Z,84.97
2022-11-26T23:09:52.570Z,84.55
2022-11-26T23:12:19.030Z,84.54
2022-11-26T23:14:45.514Z,84.07
2022-11-26T23:17:12.149Z,84.82
2022-11-26T23:19:38.856Z,84.83
2022-11-26T23:22:05.647Z,84.30
2022-11-26T23:24:32.050Z,84.33
2022-11-26T23:26:58.510Z,84.74
2022-11-26T23:29:24.975Z,84.81
2022-11-26T23:31:51.738Z,85.14
2022-11-26T23:34:18.225Z,85.15
2022-11-26T23:36:44.847Z,85.11
2022-11-26T23:39:11.568Z,84.56
2022-11-26T23:41:38.177Z,84.55
2022-11-26T23:44:04.739Z,84.60
2022-11-26T23:46:31.945Z,84.77
2022-11-26T23:48:58.364Z,84.67
2022-11-26T23:51:25.730Z,84.51
2022-11-26T23:53:52.274Z,85.18
2022-11-26T23:56:25.496Z,84.61
2022-11-26T23:58:52.423Z,84.35
